sensor_id;sensor_type;location;lat;lon;timestamp;temperature;humidity
73570;SHT30;61850;54.980;73.298;2022-10-31T00:01:27;-3.65;89.00
73570;SHT30;61850;54.980;73.298;2022-10-31T00:04:04;-3.64;89.12
73570;SHT30;61850;54.980;73.298;2022-10-31T00:06:30;-3.65;89.19
73570;SHT30;61850;54.980;73.298;2022-10-31T00:08:58;-3.70;89.42
73570;SHT30;61850;54.980;73.298;2022-10-31T00:11:28;-3.70;89.37
73570;SHT30;61850;54.980;73.298;2022-10-31T00:13:59;-3.72;89.32
73570;SHT30;61850;54.980;73.298;2022-10-31T00:16:27;-3.72;89.25
73570;SHT30;61850;54.980;73.298;2022-10-31T00:18:55;-3.74;89.17
73570;SHT30;61850;54.980;73.298;2022-10-31T00:21:32;-3.78;89.45
73570;SHT30;61850;54.980;73.298;2022-10-31T00:23:59;-3.78;89.61
73570;SHT30;61850;54.980;73.298;2022-10-31T00:26:31;-3.82;89.40
73570;SHT30;61850;54.980;73.298;2022-10-31T00:28:58;-3.85;89.61
73570;SHT30;61850;54.980;73.298;2022-10-31T00:31:27;-3.85;89.86
73570;SHT30;61850;54.980;73.298;2022-10-31T00:33:54;-3.86;90.20
73570;SHT30;61850;54.980;73.298;2022-10-31T00:36:20;-3.82;89.88
73570;SHT30;61850;54.980;73.298;2022-10-31T00:38:54;-3.86;89.77
73570;SHT30;61850;54.980;73.298;2022-10-31T00:41:21;-3.92;89.92
73570;SHT30;61850;54.980;73.298;2022-10-31T00:43:57;-3.93;89.29
73570;SHT30;61850;54.980;73.298;2022-10-31T00:46:33;-3.96;88.80
73570;SHT30;61850;54.980;73.298;2022-10-31T00:48:59;-4.02;89.76
73570;SHT30;61850;54.980;73.298;2022-10-31T00:51:26;-4.00;89.74
73570;SHT30;61850;54.980;73.298;2022-10-31T00:53:54;-4.02;89.65
73570;SHT30;61850;54.980;73.298;2022-10-31T00:56:19;-4.06;89.99
73570;SHT30;61850;54.980;73.298;2022-10-31T00:58:45;-4.06;90.04
73570;SHT30;61850;54.980;73.298;2022-10-31T01:01:16;-4.09;89.86
73570;SHT30;61850;54.980;73.298;2022-10-31T01:03:45;-4.23;90.33
73570;SHT30;61850;54.980;73.298;2022-10-31T01:06:12;-4.29;90.69
73570;SHT30;61850;54.980;73.298;2022-10-31T01:08:39;-4.31;90.74
73570;SHT30;61850;54.980;73.298;2022-10-31T01:13:35;-4.33;91.61
73570;SHT30;61850;54.980;73.298;2022-10-31T01:16:03;-4.37;91.24
73570;SHT30;61850;54.980;73.298;2022-10-31T01:18:31;-4.40;90.73
73570;SHT30;61850;54.980;73.298;2022-10-31T01:23:25;-4.29;91.75
73570;SHT30;61850;54.980;73.298;2022-10-31T01:26:03;-4.21;91.30
73570;SHT30;61850;54.980;73.298;2022-10-31T01:28:35;-4.17;91.33
73570;SHT30;61850;54.980;73.298;2022-10-31T01:31:12;-4.09;91.16
73570;SHT30;61850;54.980;73.298;2022-10-31T01:33:40;-4.03;91.10
73570;SHT30;61850;54.980;73.298;2022-10-31T01:36:19;-3.99;91.11
73570;SHT30;61850;54.980;73.298;2022-10-31T01:38:50;-3.93;89.77
73570;SHT30;61850;54.980;73.298;2022-10-31T01:41:22;-3.81;90.06
73570;SHT30;61850;54.980;73.298;2022-10-31T01:43:50;-3.67;90.07
73570;SHT30;61850;54.980;73.298;2022-10-31T01:46:37;-3.61;88.95
73570;SHT30;61850;54.980;73.298;2022-10-31T01:49:14;-3.57;88.56
73570;SHT30;61850;54.980;73.298;2022-10-31T01:51:46;-3.46;88.25
73570;SHT30;61850;54.980;73.298;2022-10-31T01:54:14;-3.46;87.84
73570;SHT30;61850;54.980;73.298;2022-10-31T01:56:42;-3.50;87.53
73570;SHT30;61850;54.980;73.298;2022-10-31T01:59:12;-3.52;87.55
73570;SHT30;61850;54.980;73.298;2022-10-31T02:01:39;-3.50;87.93
73570;SHT30;61850;54.980;73.298;2022-10-31T02:04:06;-3.37;87.89
73570;SHT30;61850;54.980;73.298;2022-10-31T02:06:36;-3.31;87.94
73570;SHT30;61850;54.980;73.298;2022-10-31T02:09:05;-3.19;87.57
73570;SHT30;61850;54.980;73.298;2022-10-31T02:11:31;-3.12;87.75
73570;SHT30;61850;54.980;73.298;2022-10-31T02:13:58;-3.03;87.61
73570;SHT30;61850;54.980;73.298;2022-10-31T02:16:26;-3.03;87.62
73570;SHT30;61850;54.980;73.298;2022-10-31T02:18:52;-3.00;88.25
73570;SHT30;61850;54.980;73.298;2022-10-31T02:21:22;-2.92;87.94
73570;SHT30;61850;54.980;73.298;2022-10-31T02:26:57;-2.91;89.42
73570;SHT30;61850;54.980;73.298;2022-10-31T02:29:37;-2.89;89.77
73570;SHT30;61850;54.980;73.298;2022-10-31T02:32:15;-2.88;89.40
73570;SHT30;61850;54.980;73.298;2022-10-31T02:37:19;-2.91;89.67
73570;SHT30;61850;54.980;73.298;2022-10-31T02:40:02;-2.92;89.58
73570;SHT30;61850;54.980;73.298;2022-10-31T02:42:51;-2.91;89.79
73570;SHT30;61850;54.980;73.298;2022-10-31T02:45:35;-2.97;90.28
73570;SHT30;61850;54.980;73.298;2022-10-31T02:48:09;-2.99;90.53
73570;SHT30;61850;54.980;73.298;2022-10-31T02:50:37;-3.04;90.49
73570;SHT30;61850;54.980;73.298;2022-10-31T02:53:09;-2.96;90.26
73570;SHT30;61850;54.980;73.298;2022-10-31T02:58:33;-3.13;90.19
73570;SHT30;61850;54.980;73.298;2022-10-31T03:03:59;-2.97;90.08
73570;SHT30;61850;54.980;73.298;2022-10-31T03:09:28;-3.00;89.97
73570;SHT30;61850;54.980;73.298;2022-10-31T03:12:08;-2.96;89.70
73570;SHT30;61850;54.980;73.298;2022-10-31T03:14:44;-2.93;89.87
73570;SHT30;61850;54.980;73.298;2022-10-31T03:17:27;-2.91;89.85
73570;SHT30;61850;54.980;73.298;2022-10-31T03:20:01;-2.89;89.78
73570;SHT30;61850;54.980;73.298;2022-10-31T03:22:29;-2.86;89.86
73570;SHT30;61850;54.980;73.298;2022-10-31T03:25:08;-2.82;89.59
73570;SHT30;61850;54.980;73.298;2022-10-31T03:27:44;-2.81;89.49
73570;SHT30;61850;54.980;73.298;2022-10-31T03:30:12;-2.85;89.44
73570;SHT30;61850;54.980;73.298;2022-10-31T03:32:56;-2.95;89.92
73570;SHT30;61850;54.980;73.298;2022-10-31T03:35:24;-2.99;90.58
73570;SHT30;61850;54.980;73.298;2022-10-31T03:37:53;-2.89;89.91
73570;SHT30;61850;54.980;73.298;2022-10-31T03:40:21;-2.89;90.03
73570;SHT30;61850;54.980;73.298;2022-10-31T03:43:10;-2.88;90.25
73570;SHT30;61850;54.980;73.298;2022-10-31T03:45:35;-2.88;90.16
73570;SHT30;61850;54.980;73.298;2022-10-31T03:48:05;-2.99;90.78
73570;SHT30;61850;54.980;73.298;2022-10-31T03:50:36;-2.95;90.86
73570;SHT30;61850;54.980;73.298;2022-10-31T03:53:14;-2.73;89.91
73570;SHT30;61850;54.980;73.298;2022-10-31T03:55:47;-2.73;89.84
73570;SHT30;61850;54.980;73.298;2022-10-31T03:58:23;-2.75;89.98
73570;SHT30;61850;54.980;73.298;2022-10-31T04:00:52;-2.83;90.20
73570;SHT30;61850;54.980;73.298;2022-10-31T04:03:24;-2.81;90.02
73570;SHT30;61850;54.980;73.298;2022-10-31T04:05:54;-2.73;90.02
73570;SHT30;61850;54.980;73.298;2022-10-31T04:08:23;-2.73;90.22
73570;SHT30;61850;54.980;73.298;2022-10-31T04:10:56;-2.72;90.17
73570;SHT30;61850;54.980;73.298;2022-10-31T04:13:33;-2.72;89.68
73570;SHT30;61850;54.980;73.298;2022-10-31T04:16:07;-2.71;89.95
73570;SHT30;61850;54.980;73.298;2022-10-31T04:18:33;-2.68;89.55
73570;SHT30;61850;54.980;73.298;2022-10-31T04:21:06;-2.64;89.79
73570;SHT30;61850;54.980;73.298;2022-10-31T04:23:37;-2.64;89.53
73570;SHT30;61850;54.980;73.298;2022-10-31T04:26:26;-2.65;89.94
73570;SHT30;61850;54.980;73.298;2022-10-31T04:28:53;-2.57;89.65
73570;SHT30;61850;54.980;73.298;2022-10-31T04:31:19;-2.66;89.86
73570;SHT30;61850;54.980;73.298;2022-10-31T04:33:47;-2.61;89.50
73570;SHT30;61850;54.980;73.298;2022-10-31T04:36:14;-2.62;89.61
73570;SHT30;61850;54.980;73.298;2022-10-31T04:38:41;-2.60;89.47
73570;SHT30;61850;54.980;73.298;2022-10-31T04:41:24;-2.51;89.66
73570;SHT30;61850;54.980;73.298;2022-10-31T04:43:53;-2.48;89.36
73570;SHT30;61850;54.980;73.298;2022-10-31T04:46:20;-2.47;89.44
73570;SHT30;61850;54.980;73.298;2022-10-31T04:48:46;-2.44;89.47
73570;SHT30;61850;54.980;73.298;2022-10-31T04:51:12;-2.38;89.41
73570;SHT30;61850;54.980;73.298;2022-10-31T04:53:39;-2.37;89.25
73570;SHT30;61850;54.980;73.298;2022-10-31T04:56:25;-2.41;89.05
73570;SHT30;61850;54.980;73.298;2022-10-31T04:59:05;-2.38;89.34
73570;SHT30;61850;54.980;73.298;2022-10-31T05:01:46;-2.33;89.24
73570;SHT30;61850;54.980;73.298;2022-10-31T05:04:13;-2.19;88.76
73570;SHT30;61850;54.980;73.298;2022-10-31T05:06:39;-2.11;88.63
73570;SHT30;61850;54.980;73.298;2022-10-31T05:09:05;-2.11;88.31
73570;SHT30;61850;54.980;73.298;2022-10-31T05:11:31;-2.07;88.33
73570;SHT30;61850;54.980;73.298;2022-10-31T05:14:07;-2.03;88.20
73570;SHT30;61850;54.980;73.298;2022-10-31T05:17:11;-1.92;87.71
73570;SHT30;61850;54.980;73.298;2022-10-31T05:20:00;-1.85;87.22
73570;SHT30;61850;54.980;73.298;2022-10-31T05:22:56;-1.94;87.43
73570;SHT30;61850;54.980;73.298;2022-10-31T05:25:24;-2.15;88.18
73570;SHT30;61850;54.980;73.298;2022-10-31T05:27:57;-1.96;87.88
73570;SHT30;61850;54.980;73.298;2022-10-31T05:30:27;-1.92;87.74
73570;SHT30;61850;54.980;73.298;2022-10-31T05:32:54;-1.96;88.08
73570;SHT30;61850;54.980;73.298;2022-10-31T05:35:45;-2.03;88.45
73570;SHT30;61850;54.980;73.298;2022-10-31T05:38:32;-2.13;88.82
73570;SHT30;61850;54.980;73.298;2022-10-31T05:41:07;-1.90;88.50
73570;SHT30;61850;54.980;73.298;2022-10-31T05:43:35;-1.78;87.68
73570;SHT30;61850;54.980;73.298;2022-10-31T05:46:04;-1.72;87.32
73570;SHT30;61850;54.980;73.298;2022-10-31T05:49:09;-1.99;87.81
73570;SHT30;61850;54.980;73.298;2022-10-31T05:52:04;-1.90;87.42
73570;SHT30;61850;54.980;73.298;2022-10-31T05:54:39;-1.85;87.37
73570;SHT30;61850;54.980;73.298;2022-10-31T05:57:07;-1.94;88.06
73570;SHT30;61850;54.980;73.298;2022-10-31T05:59:33;-1.83;87.63
73570;SHT30;61850;54.980;73.298;2022-10-31T06:02:00;-1.96;87.89
73570;SHT30;61850;54.980;73.298;2022-10-31T06:04:57;-1.89;88.08
73570;SHT30;61850;54.980;73.298;2022-10-31T06:07:25;-1.89;88.00
73570;SHT30;61850;54.980;73.298;2022-10-31T06:09:52;-1.87;88.38
73570;SHT30;61850;54.980;73.298;2022-10-31T06:12:21;-2.02;88.96
73570;SHT30;61850;54.980;73.298;2022-10-31T06:15:16;-2.14;89.40
73570;SHT30;61850;54.980;73.298;2022-10-31T06:17:59;-2.23;89.57
73570;SHT30;61850;54.980;73.298;2022-10-31T06:20:26;-2.34;90.05
73570;SHT30;61850;54.980;73.298;2022-10-31T06:22:58;-2.37;90.26
73570;SHT30;61850;54.980;73.298;2022-10-31T06:25:24;-2.33;90.09
73570;SHT30;61850;54.980;73.298;2022-10-31T06:27:52;-2.23;89.80
73570;SHT30;61850;54.980;73.298;2022-10-31T06:30:21;-2.31;89.70
73570;SHT30;61850;54.980;73.298;2022-10-31T06:33:05;-2.26;89.40
73570;SHT30;61850;54.980;73.298;2022-10-31T06:35:36;-2.14;89.01
73570;SHT30;61850;54.980;73.298;2022-10-31T06:38:04;-2.20;89.65
73570;SHT30;61850;54.980;73.298;2022-10-31T06:40:40;-2.19;89.81
73570;SHT30;61850;54.980;73.298;2022-10-31T06:43:35;-2.24;89.55
73570;SHT30;61850;54.980;73.298;2022-10-31T06:46:27;-2.02;89.66
73570;SHT30;61850;54.980;73.298;2022-10-31T06:49:21;-2.00;89.28
73570;SHT30;61850;54.980;73.298;2022-10-31T06:52:04;-2.04;89.02
73570;SHT30;61850;54.980;73.298;2022-10-31T06:54:31;-2.17;88.58
73570;SHT30;61850;54.980;73.298;2022-10-31T06:57:01;-2.17;88.67
73570;SHT30;61850;54.980;73.298;2022-10-31T06:59:31;-2.17;89.05
73570;SHT30;61850;54.980;73.298;2022-10-31T07:02:23;-2.09;89.41
73570;SHT30;61850;54.980;73.298;2022-10-31T07:04:49;-2.02;88.49
73570;SHT30;61850;54.980;73.298;2022-10-31T07:07:17;-2.00;88.07
73570;SHT30;61850;54.980;73.298;2022-10-31T07:09:44;-2.03;88.15
73570;SHT30;61850;54.980;73.298;2022-10-31T07:12:13;-2.09;88.50
73570;SHT30;61850;54.980;73.298;2022-10-31T07:14:47;-1.97;88.30
73570;SHT30;61850;54.980;73.298;2022-10-31T07:17:14;-1.97;88.09
73570;SHT30;61850;54.980;73.298;2022-10-31T07:19:44;-2.11;88.54
73570;SHT30;61850;54.980;73.298;2022-10-31T07:22:12;-2.09;88.84
73570;SHT30;61850;54.980;73.298;2022-10-31T07:24:40;-1.96;88.62
73570;SHT30;61850;54.980;73.298;2022-10-31T07:27:26;-1.96;88.64
73570;SHT30;61850;54.980;73.298;2022-10-31T07:29:53;-1.86;88.76
73570;SHT30;61850;54.980;73.298;2022-10-31T07:32:19;-1.89;88.97
73570;SHT30;61850;54.980;73.298;2022-10-31T07:34:51;-1.76;88.83
73570;SHT30;61850;54.980;73.298;2022-10-31T07:37:32;-1.78;88.35
73570;SHT30;61850;54.980;73.298;2022-10-31T07:39:58;-1.65;87.93
73570;SHT30;61850;54.980;73.298;2022-10-31T07:42:24;-1.66;88.03
73570;SHT30;61850;54.980;73.298;2022-10-31T07:44:50;-1.59;87.80
73570;SHT30;61850;54.980;73.298;2022-10-31T07:47:43;-1.61;87.95
73570;SHT30;61850;54.980;73.298;2022-10-31T07:50:11;-1.56;87.92
73570;SHT30;61850;54.980;73.298;2022-10-31T07:53:04;-1.45;87.33
73570;SHT30;61850;54.980;73.298;2022-10-31T07:55:46;-1.38;87.26
73570;SHT30;61850;54.980;73.298;2022-10-31T07:58:14;-1.23;87.03
73570;SHT30;61850;54.980;73.298;2022-10-31T08:00:42;-1.23;86.82
73570;SHT30;61850;54.980;73.298;2022-10-31T08:03:16;-1.37;87.11
73570;SHT30;61850;54.980;73.298;2022-10-31T08:06:01;-1.33;87.12
73570;SHT30;61850;54.980;73.298;2022-10-31T08:08:42;-1.37;87.45
73570;SHT30;61850;54.980;73.298;2022-10-31T08:11:09;-1.33;87.55
73570;SHT30;61850;54.980;73.298;2022-10-31T08:13:35;-1.25;87.55
73570;SHT30;61850;54.980;73.298;2022-10-31T08:16:02;-1.16;87.20
73570;SHT30;61850;54.980;73.298;2022-10-31T08:18:51;-1.18;87.48
73570;SHT30;61850;54.980;73.298;2022-10-31T08:21:41;-1.07;87.19
73570;SHT30;61850;54.980;73.298;2022-10-31T08:24:27;-0.87;86.70
73570;SHT30;61850;54.980;73.298;2022-10-31T08:26:59;-0.72;85.85
73570;SHT30;61850;54.980;73.298;2022-10-31T08:29:26;-0.65;85.41
73570;SHT30;61850;54.980;73.298;2022-10-31T08:31:57;-0.69;85.43
73570;SHT30;61850;54.980;73.298;2022-10-31T08:34:44;-0.62;85.34
73570;SHT30;61850;54.980;73.298;2022-10-31T08:37:34;-0.64;85.15
73570;SHT30;61850;54.980;73.298;2022-10-31T08:40:07;-0.65;85.17
73570;SHT30;61850;54.980;73.298;2022-10-31T08:43:06;-0.64;85.59
73570;SHT30;61850;54.980;73.298;2022-10-31T08:45:33;-0.52;85.17
73570;SHT30;61850;54.980;73.298;2022-10-31T08:48:00;-0.58;83.87
73570;SHT30;61850;54.980;73.298;2022-10-31T08:50:28;-0.62;84.10
73570;SHT30;61850;54.980;73.298;2022-10-31T08:53:03;-0.70;84.51
73570;SHT30;61850;54.980;73.298;2022-10-31T08:55:35;-0.76;84.68
73570;SHT30;61850;54.980;73.298;2022-10-31T08:58:06;-0.77;84.83
73570;SHT30;61850;54.980;73.298;2022-10-31T09:00:42;-0.65;84.40
73570;SHT30;61850;54.980;73.298;2022-10-31T09:03:23;-0.52;84.64
73570;SHT30;61850;54.980;73.298;2022-10-31T09:05:58;-0.54;84.13
73570;SHT30;61850;54.980;73.298;2022-10-31T09:08:31;-0.64;84.09
73570;SHT30;61850;54.980;73.298;2022-10-31T09:11:05;-0.44;83.74
73570;SHT30;61850;54.980;73.298;2022-10-31T09:13:51;-0.28;83.42
73570;SHT30;61850;54.980;73.298;2022-10-31T09:16:50;-0.31;83.53
73570;SHT30;61850;54.980;73.298;2022-10-31T09:19:21;-0.35;82.60
73570;SHT30;61850;54.980;73.298;2022-10-31T09:21:53;-0.44;82.98
73570;SHT30;61850;54.980;73.298;2022-10-31T09:24:32;-0.45;83.10
73570;SHT30;61850;54.980;73.298;2022-10-31T09:26:58;-0.49;83.08
73570;SHT30;61850;54.980;73.298;2022-10-31T09:29:32;-0.55;83.33
73570;SHT30;61850;54.980;73.298;2022-10-31T09:31:59;-0.34;83.12
73570;SHT30;61850;54.980;73.298;2022-10-31T09:34:29;-0.54;83.38
73570;SHT30;61850;54.980;73.298;2022-10-31T09:37:08;-0.51;83.58
73570;SHT30;61850;54.980;73.298;2022-10-31T09:39:45;-0.64;83.52
73570;SHT30;61850;54.980;73.298;2022-10-31T09:47:59;-0.49;83.13
73570;SHT30;61850;54.980;73.298;2022-10-31T09:56:18;-0.32;82.77
73570;SHT30;61850;54.980;73.298;2022-10-31T09:58:55;-0.31;82.60
73570;SHT30;61850;54.980;73.298;2022-10-31T10:01:37;-0.29;82.45
73570;SHT30;61850;54.980;73.298;2022-10-31T10:09:44;-0.49;83.78
73570;SHT30;61850;54.980;73.298;2022-10-31T10:15:16;-0.44;83.63
73570;SHT30;61850;54.980;73.298;2022-10-31T10:17:59;-0.56;83.31
73570;SHT30;61850;54.980;73.298;2022-10-31T10:23:34;-0.76;84.46
73570;SHT30;61850;54.980;73.298;2022-10-31T10:26:04;-0.64;84.21
73570;SHT30;61850;54.980;73.298;2022-10-31T10:28:33;-0.48;83.74
73570;SHT30;61850;54.980;73.298;2022-10-31T10:31:14;-0.42;83.41
73570;SHT30;61850;54.980;73.298;2022-10-31T10:39:20;-0.55;83.50
73570;SHT30;61850;54.980;73.298;2022-10-31T10:41:53;-0.56;83.75
73570;SHT30;61850;54.980;73.298;2022-10-31T10:44:42;-0.61;84.10
73570;SHT30;61850;54.980;73.298;2022-10-31T10:47:31;-0.73;84.54
73570;SHT30;61850;54.980;73.298;2022-10-31T10:50:17;-0.70;84.25
73570;SHT30;61850;54.980;73.298;2022-10-31T10:55:53;-0.56;83.67
73570;SHT30;61850;54.980;73.298;2022-10-31T10:58:26;-0.72;84.12
73570;SHT30;61850;54.980;73.298;2022-10-31T11:00:52;-0.82;84.34
73570;SHT30;61850;54.980;73.298;2022-10-31T11:03:23;-0.73;84.19
73570;SHT30;61850;54.980;73.298;2022-10-31T11:08:29;-0.62;83.84
73570;SHT30;61850;54.980;73.298;2022-10-31T11:13:35;-0.46;83.40
73570;SHT30;61850;54.980;73.298;2022-10-31T11:16:07;-0.52;83.36
73570;SHT30;61850;54.980;73.298;2022-10-31T11:18:36;-0.46;83.36
73570;SHT30;61850;54.980;73.298;2022-10-31T11:21:23;-0.65;83.85
73570;SHT30;61850;54.980;73.298;2022-10-31T11:24:13;-0.66;84.10
73570;SHT30;61850;54.980;73.298;2022-10-31T11:26:46;-0.76;84.38
73570;SHT30;61850;54.980;73.298;2022-10-31T11:29:14;-0.82;84.50
73570;SHT30;61850;54.980;73.298;2022-10-31T11:31:41;-0.97;85.21
73570;SHT30;61850;54.980;73.298;2022-10-31T11:34:20;-1.07;85.79
73570;SHT30;61850;54.980;73.298;2022-10-31T11:37:11;-1.10;86.20
73570;SHT30;61850;54.980;73.298;2022-10-31T11:39:46;-1.17;86.23
73570;SHT30;61850;54.980;73.298;2022-10-31T11:42:25;-1.24;86.61
73570;SHT30;61850;54.980;73.298;2022-10-31T11:44:57;-1.31;86.71
73570;SHT30;61850;54.980;73.298;2022-10-31T11:47:28;-1.33;86.67
73570;SHT30;61850;54.980;73.298;2022-10-31T11:49:55;-1.43;87.33
73570;SHT30;61850;54.980;73.298;2022-10-31T11:52:28;-1.47;87.33
73570;SHT30;61850;54.980;73.298;2022-10-31T11:55:02;-1.54;87.51
73570;SHT30;61850;54.980;73.298;2022-10-31T11:57:44;-1.52;87.56
73570;SHT30;61850;54.980;73.298;2022-10-31T12:00:25;-1.61;88.09
73570;SHT30;61850;54.980;73.298;2022-10-31T12:03:03;-1.64;88.36
73570;SHT30;61850;54.980;73.298;2022-10-31T12:05:39;-1.69;88.29
73570;SHT30;61850;54.980;73.298;2022-10-31T12:08:08;-1.69;88.52
73570;SHT30;61850;54.980;73.298;2022-10-31T12:10:44;-1.75;88.92
73570;SHT30;61850;54.980;73.298;2022-10-31T12:16:12;-1.83;89.62
73570;SHT30;61850;54.980;73.298;2022-10-31T12:21:30;-1.83;89.40
73570;SHT30;61850;54.980;73.298;2022-10-31T12:35:03;-1.94;90.07
73570;SHT30;61850;54.980;73.298;2022-10-31T12:37:46;-2.00;90.52
73570;SHT30;61850;54.980;73.298;2022-10-31T12:42:46;-2.02;90.21
73570;SHT30;61850;54.980;73.298;2022-10-31T12:58:44;-2.15;90.73
73570;SHT30;61850;54.980;73.298;2022-10-31T13:01:21;-2.15;90.75
73570;SHT30;61850;54.980;73.298;2022-10-31T13:06:22;-2.19;90.81
73570;SHT30;61850;54.980;73.298;2022-10-31T13:08:57;-2.23;91.17
73570;SHT30;61850;54.980;73.298;2022-10-31T13:11:30;-2.23;91.15
73570;SHT30;61850;54.980;73.298;2022-10-31T13:14:01;-2.29;91.28
73570;SHT30;61850;54.980;73.298;2022-10-31T13:16:30;-2.34;91.52
73570;SHT30;61850;54.980;73.298;2022-10-31T13:22:00;-2.41;91.83
73570;SHT30;61850;54.980;73.298;2022-10-31T13:27:27;-2.41;92.18
73570;SHT30;61850;54.980;73.298;2022-10-31T13:30:04;-2.44;92.33
73570;SHT30;61850;54.980;73.298;2022-10-31T13:32:42;-2.40;92.26
73570;SHT30;61850;54.980;73.298;2022-10-31T13:35:20;-2.44;92.45
73570;SHT30;61850;54.980;73.298;2022-10-31T13:37:56;-2.36;92.23
73570;SHT30;61850;54.980;73.298;2022-10-31T13:43:11;-2.33;92.25
73570;SHT30;61850;54.980;73.298;2022-10-31T13:45:53;-2.38;92.42
73570;SHT30;61850;54.980;73.298;2022-10-31T13:50:58;-2.40;92.62
73570;SHT30;61850;54.980;73.298;2022-10-31T13:53:44;-2.33;92.32
73570;SHT30;61850;54.980;73.298;2022-10-31T13:56:18;-2.27;92.18
73570;SHT30;61850;54.980;73.298;2022-10-31T13:59:01;-2.33;92.40
73570;SHT30;61850;54.980;73.298;2022-10-31T14:01:27;-2.43;92.97
73570;SHT30;61850;54.980;73.298;2022-10-31T14:04:12;-2.44;93.29
73570;SHT30;61850;54.980;73.298;2022-10-31T14:09:15;-2.37;93.24
73570;SHT30;61850;54.980;73.298;2022-10-31T14:11:57;-2.33;92.98
73570;SHT30;61850;54.980;73.298;2022-10-31T14:14:26;-2.29;92.75
73570;SHT30;61850;54.980;73.298;2022-10-31T14:16:57;-2.27;92.82
73570;SHT30;61850;54.980;73.298;2022-10-31T14:19:24;-2.24;92.79
73570;SHT30;61850;54.980;73.298;2022-10-31T14:21:51;-2.24;92.69
73570;SHT30;61850;54.980;73.298;2022-10-31T14:26:57;-2.24;92.72
73570;SHT30;61850;54.980;73.298;2022-10-31T14:29:24;-2.21;92.82
73570;SHT30;61850;54.980;73.298;2022-10-31T14:32:06;-2.24;92.73
73570;SHT30;61850;54.980;73.298;2022-10-31T14:34:43;-2.29;92.71
73570;SHT30;61850;54.980;73.298;2022-10-31T14:53:56;-2.52;92.59
73570;SHT30;61850;54.980;73.298;2022-10-31T14:55:57;-2.55;92.67
73570;SHT30;61850;54.980;73.298;2022-10-31T14:58:26;-2.64;92.75
73570;SHT30;61850;54.980;73.298;2022-10-31T15:00:55;-2.62;92.70
73570;SHT30;61850;54.980;73.298;2022-10-31T15:05:55;-2.72;92.78
73570;SHT30;61850;54.980;73.298;2022-10-31T15:08:26;-2.72;92.96
73570;SHT30;61850;54.980;73.298;2022-10-31T15:10:54;-2.78;93.04
73570;SHT30;61850;54.980;73.298;2022-10-31T15:13:21;-2.78;93.18
73570;SHT30;61850;54.980;73.298;2022-10-31T15:15:58;-2.79;92.96
73570;SHT30;61850;54.980;73.298;2022-10-31T15:18:25;-2.82;93.08
73570;SHT30;61850;54.980;73.298;2022-10-31T15:20:52;-2.91;93.47
73570;SHT30;61850;54.980;73.298;2022-10-31T15:23:25;-2.92;93.51
73570;SHT30;61850;54.980;73.298;2022-10-31T15:26:03;-2.92;93.81
73570;SHT30;61850;54.980;73.298;2022-10-31T15:28:36;-2.95;94.33
73570;SHT30;61850;54.980;73.298;2022-10-31T15:31:03;-2.92;94.44
73570;SHT30;61850;54.980;73.298;2022-10-31T15:33:41;-2.89;93.99
73570;SHT30;61850;54.980;73.298;2022-10-31T15:36:20;-2.92;93.90
73570;SHT30;61850;54.980;73.298;2022-10-31T15:38:46;-2.95;93.95
73570;SHT30;61850;54.980;73.298;2022-10-31T15:43:47;-2.89;93.73
73570;SHT30;61850;54.980;73.298;2022-10-31T15:46:13;-2.91;93.74
73570;SHT30;61850;54.980;73.298;2022-10-31T15:48:44;-2.88;93.66
73570;SHT30;61850;54.980;73.298;2022-10-31T15:51:11;-2.92;93.73
73570;SHT30;61850;54.980;73.298;2022-10-31T15:53:41;-2.89;93.86
73570;SHT30;61850;54.980;73.298;2022-10-31T15:56:10;-2.89;93.76
73570;SHT30;61850;54.980;73.298;2022-10-31T15:58:44;-2.85;93.57
73570;SHT30;61850;54.980;73.298;2022-10-31T16:06:30;-2.91;93.76
73570;SHT30;61850;54.980;73.298;2022-10-31T16:08:58;-2.86;93.60
73570;SHT30;61850;54.980;73.298;2022-10-31T16:11:36;-2.88;93.17
73570;SHT30;61850;54.980;73.298;2022-10-31T16:16:40;-2.86;93.04
73570;SHT30;61850;54.980;73.298;2022-10-31T16:19:12;-2.89;92.76
73570;SHT30;61850;54.980;73.298;2022-10-31T16:21:40;-2.92;92.98
73570;SHT30;61850;54.980;73.298;2022-10-31T16:24:26;-3.00;92.74
73570;SHT30;61850;54.980;73.298;2022-10-31T16:26:55;-3.00;92.78
73570;SHT30;61850;54.980;73.298;2022-10-31T16:29:41;-3.03;92.63
73570;SHT30;61850;54.980;73.298;2022-10-31T16:32:27;-3.07;92.53
73570;SHT30;61850;54.980;73.298;2022-10-31T16:37:39;-3.06;92.10
73570;SHT30;61850;54.980;73.298;2022-10-31T16:40:06;-3.09;92.02
73570;SHT30;61850;54.980;73.298;2022-10-31T16:42:32;-3.14;92.16
73570;SHT30;61850;54.980;73.298;2022-10-31T16:44:58;-3.20;92.26
73570;SHT30;61850;54.980;73.298;2022-10-31T16:47:34;-3.20;92.27
73570;SHT30;61850;54.980;73.298;2022-10-31T16:50:10;-3.23;92.34
73570;SHT30;61850;54.980;73.298;2022-10-31T16:52:38;-3.21;92.53
73570;SHT30;61850;54.980;73.298;2022-10-31T16:55:05;-3.17;92.08
73570;SHT30;61850;54.980;73.298;2022-10-31T16:57:31;-3.24;92.15
73570;SHT30;61850;54.980;73.298;2022-10-31T16:59:58;-3.26;92.10
73570;SHT30;61850;54.980;73.298;2022-10-31T17:02:24;-3.23;92.05
73570;SHT30;61850;54.980;73.298;2022-10-31T17:04:50;-3.27;92.03
73570;SHT30;61850;54.980;73.298;2022-10-31T17:07:16;-3.24;92.04
73570;SHT30;61850;54.980;73.298;2022-10-31T17:09:48;-3.26;91.93
73570;SHT30;61850;54.980;73.298;2022-10-31T17:12:15;-3.26;92.21
73570;SHT30;61850;54.980;73.298;2022-10-31T17:14:48;-3.26;91.98
73570;SHT30;61850;54.980;73.298;2022-10-31T17:17:20;-3.27;91.91
73570;SHT30;61850;54.980;73.298;2022-10-31T17:19:56;-3.29;91.60
73570;SHT30;61850;54.980;73.298;2022-10-31T17:22:22;-3.30;91.50
73570;SHT30;61850;54.980;73.298;2022-10-31T17:24:48;-3.30;91.44
73570;SHT30;61850;54.980;73.298;2022-10-31T17:27:15;-3.36;91.40
73570;SHT30;61850;54.980;73.298;2022-10-31T17:29:41;-3.41;91.63
73570;SHT30;61850;54.980;73.298;2022-10-31T17:32:07;-3.40;91.79
73570;SHT30;61850;54.980;73.298;2022-10-31T17:34:33;-3.43;91.61
73570;SHT30;61850;54.980;73.298;2022-10-31T17:37:00;-3.47;91.46
73570;SHT30;61850;54.980;73.298;2022-10-31T17:39:26;-3.50;91.65
73570;SHT30;61850;54.980;73.298;2022-10-31T17:41:52;-3.50;91.60
73570;SHT30;61850;54.980;73.298;2022-10-31T17:44:18;-3.58;91.60
73570;SHT30;61850;54.980;73.298;2022-10-31T17:46:44;-3.55;91.47
73570;SHT30;61850;54.980;73.298;2022-10-31T17:49:10;-3.58;91.35
73570;SHT30;61850;54.980;73.298;2022-10-31T17:51:36;-3.60;91.20
73570;SHT30;61850;54.980;73.298;2022-10-31T17:54:02;-3.64;91.46
73570;SHT30;61850;54.980;73.298;2022-10-31T17:56:34;-3.65;91.54
73570;SHT30;61850;54.980;73.298;2022-10-31T17:59:00;-3.67;91.27
73570;SHT30;61850;54.980;73.298;2022-10-31T18:01:26;-3.67;91.28
73570;SHT30;61850;54.980;73.298;2022-10-31T18:03:52;-3.65;91.21
73570;SHT30;61850;54.980;73.298;2022-10-31T18:06:18;-3.71;91.38
73570;SHT30;61850;54.980;73.298;2022-10-31T18:08:44;-3.71;91.38
73570;SHT30;61850;54.980;73.298;2022-10-31T18:11:12;-3.71;91.31